sensor_id;sensor_type;location;lat;lon;timestamp;P1;durP1;ratioP1;P2;durP2;ratioP2
71351;SDS011;59159;51.652;4.864;2023-09-07T00:01:18;8.02;;;3.97;;
71351;SDS011;59159;51.652;4.864;2023-09-07T00:03:44;8.23;;;3.42;;
71351;SDS011;59159;51.652;4.864;2023-09-07T00:06:10;7.70;;;3.97;;
71351;SDS011;59159;51.652;4.864;2023-09-07T00:08:36;8.68;;;3.85;;
71351;SDS011;59159;51.652;4.864;2023-09-07T00:11:03;7.22;;;3.60;;
71351;SDS011;59159;51.652;4.864;2023-09-07T00:13:29;9.27;;;4.32;;
71351;SDS011;59159;51.652;4.864;2023-09-07T00:15:57;7.67;;;4.07;;
71351;SDS011;59159;51.652;4.864;2023-09-07T00:18:23;7.57;;;3.80;;
71351;SDS011;59159;51.652;4.864;2023-09-07T00:20:49;7.70;;;3.88;;
71351;SDS011;59159;51.652;4.864;2023-09-07T00:23:15;7.53;;;3.90;;
71351;SDS011;59159;51.652;4.864;2023-09-07T00:25:41;7.45;;;3.80;;
71351;SDS011;59159;51.652;4.864;2023-09-07T00:28:07;7.55;;;3.70;;
71351;SDS011;59159;51.652;4.864;2023-09-07T00:30:33;8.23;;;3.93;;
71351;SDS011;59159;51.652;4.864;2023-09-07T00:32:59;7.78;;;3.70;;
71351;SDS011;59159;51.652;4.864;2023-09-07T00:35:25;7.72;;;3.75;;
71351;SDS011;59159;51.652;4.864;2023-09-07T00:37:51;7.95;;;3.40;;
71351;SDS011;59159;51.652;4.864;2023-09-07T00:40:17;7.80;;;3.20;;
71351;SDS011;59159;51.652;4.864;2023-09-07T00:42:43;7.90;;;3.78;;
71351;SDS011;59159;51.652;4.864;2023-09-07T00:45:09;7.50;;;3.17;;
71351;SDS011;59159;51.652;4.864;2023-09-07T00:47:35;7.27;;;3.23;;
71351;SDS011;59159;51.652;4.864;2023-09-07T00:50:02;7.72;;;4.00;;
71351;SDS011;59159;51.652;4.864;2023-09-07T00:52:29;7.97;;;3.75;;
71351;SDS011;59159;51.652;4.864;2023-09-07T00:54:55;6.60;;;3.10;;
71351;SDS011;59159;51.652;4.864;2023-09-07T00:57:21;7.35;;;3.80;;
71351;SDS011;59159;51.652;4.864;2023-09-07T00:59:47;8.07;;;3.85;;
71351;SDS011;59159;51.652;4.864;2023-09-07T01:02:13;6.85;;;3.50;;
71351;SDS011;59159;51.652;4.864;2023-09-07T01:04:39;7.80;;;3.80;;
71351;SDS011;59159;51.652;4.864;2023-09-07T01:07:26;8.13;;;4.18;;
71351;SDS011;59159;51.652;4.864;2023-09-07T01:09:56;8.25;;;4.25;;
71351;SDS011;59159;51.652;4.864;2023-09-07T01:12:23;8.40;;;4.17;;
71351;SDS011;59159;51.652;4.864;2023-09-07T01:14:49;7.78;;;3.63;;
71351;SDS011;59159;51.652;4.864;2023-09-07T01:17:15;8.55;;;4.13;;
71351;SDS011;59159;51.652;4.864;2023-09-07T01:19:41;7.13;;;3.53;;
71351;SDS011;59159;51.652;4.864;2023-09-07T01:22:08;7.50;;;3.70;;
71351;SDS011;59159;51.652;4.864;2023-09-07T01:24:34;7.15;;;3.78;;
71351;SDS011;59159;51.652;4.864;2023-09-07T01:27:01;7.30;;;3.70;;
71351;SDS011;59159;51.652;4.864;2023-09-07T01:29:28;7.97;;;4.43;;
71351;SDS011;59159;51.652;4.864;2023-09-07T01:31:54;7.03;;;3.70;;
71351;SDS011;59159;51.652;4.864;2023-09-07T01:34:20;7.80;;;4.07;;
71351;SDS011;59159;51.652;4.864;2023-09-07T01:36:47;7.80;;;3.63;;
71351;SDS011;59159;51.652;4.864;2023-09-07T01:39:13;7.05;;;3.35;;
71351;SDS011;59159;51.652;4.864;2023-09-07T01:41:39;8.68;;;3.88;;
71351;SDS011;59159;51.652;4.864;2023-09-07T01:44:05;7.47;;;3.70;;
71351;SDS011;59159;51.652;4.864;2023-09-07T01:46:31;7.45;;;3.50;;
71351;SDS011;59159;51.652;4.864;2023-09-07T01:48:57;7.30;;;3.60;;
71351;SDS011;59159;51.652;4.864;2023-09-07T01:51:23;7.75;;;4.00;;
71351;SDS011;59159;51.652;4.864;2023-09-07T01:53:52;7.80;;;3.47;;
71351;SDS011;59159;51.652;4.864;2023-09-07T01:56:18;8.50;;;3.90;;
71351;SDS011;59159;51.652;4.864;2023-09-07T01:58:44;7.63;;;3.85;;
71351;SDS011;59159;51.652;4.864;2023-09-07T02:01:20;7.93;;;3.70;;
71351;SDS011;59159;51.652;4.864;2023-09-07T02:03:46;8.18;;;3.58;;
71351;SDS011;59159;51.652;4.864;2023-09-07T02:06:13;7.80;;;4.15;;
71351;SDS011;59159;51.652;4.864;2023-09-07T02:08:39;9.03;;;3.93;;
71351;SDS011;59159;51.652;4.864;2023-09-07T02:11:05;8.50;;;3.95;;
71351;SDS011;59159;51.652;4.864;2023-09-07T02:13:32;7.57;;;3.75;;
71351;SDS011;59159;51.652;4.864;2023-09-07T02:15:58;6.88;;;3.58;;
71351;SDS011;59159;51.652;4.864;2023-09-07T02:18:24;7.33;;;3.63;;
71351;SDS011;59159;51.652;4.864;2023-09-07T02:20:50;7.80;;;3.50;;
71351;SDS011;59159;51.652;4.864;2023-09-07T02:23:16;6.75;;;3.50;;
71351;SDS011;59159;51.652;4.864;2023-09-07T02:25:42;7.23;;;3.20;;
71351;SDS011;59159;51.652;4.864;2023-09-07T02:28:08;7.47;;;3.80;;
71351;SDS011;59159;51.652;4.864;2023-09-07T02:30:34;8.10;;;3.60;;
71351;SDS011;59159;51.652;4.864;2023-09-07T02:33:00;7.80;;;3.53;;
71351;SDS011;59159;51.652;4.864;2023-09-07T02:35:26;7.60;;;3.60;;
71351;SDS011;59159;51.652;4.864;2023-09-07T02:37:52;8.18;;;3.83;;
71351;SDS011;59159;51.652;4.864;2023-09-07T02:40:18;7.55;;;4.15;;
71351;SDS011;59159;51.652;4.864;2023-09-07T02:42:44;7.57;;;3.70;;
71351;SDS011;59159;51.652;4.864;2023-09-07T02:45:10;7.28;;;3.50;;
71351;SDS011;59159;51.652;4.864;2023-09-07T02:47:37;6.72;;;3.10;;
71351;SDS011;59159;51.652;4.864;2023-09-07T02:50:03;6.80;;;3.43;;
71351;SDS011;59159;51.652;4.864;2023-09-07T02:52:30;7.10;;;3.40;;
71351;SDS011;59159;51.652;4.864;2023-09-07T02:54:56;7.60;;;3.33;;
71351;SDS011;59159;51.652;4.864;2023-09-07T02:57:22;7.60;;;4.10;;
71351;SDS011;59159;51.652;4.864;2023-09-07T02:59:48;7.88;;;3.65;;
71351;SDS011;59159;51.652;4.864;2023-09-07T03:02:14;7.60;;;3.70;;
71351;SDS011;59159;51.652;4.864;2023-09-07T03:04:40;7.90;;;3.45;;
71351;SDS011;59159;51.652;4.864;2023-09-07T03:07:06;7.90;;;3.40;;
71351;SDS011;59159;51.652;4.864;2023-09-07T03:09:32;6.95;;;3.40;;
71351;SDS011;59159;51.652;4.864;2023-09-07T03:11:58;8.27;;;4.10;;
71351;SDS011;59159;51.652;4.864;2023-09-07T03:14:24;6.73;;;3.33;;
71351;SDS011;59159;51.652;4.864;2023-09-07T03:16:50;9.18;;;3.70;;
71351;SDS011;59159;51.652;4.864;2023-09-07T03:19:16;6.65;;;3.30;;
71351;SDS011;59159;51.652;4.864;2023-09-07T03:21:42;7.03;;;3.30;;
71351;SDS011;59159;51.652;4.864;2023-09-07T03:24:08;7.20;;;3.55;;
71351;SDS011;59159;51.652;4.864;2023-09-07T03:26:34;6.57;;;3.38;;
71351;SDS011;59159;51.652;4.864;2023-09-07T03:29:00;6.88;;;3.63;;
71351;SDS011;59159;51.652;4.864;2023-09-07T03:31:26;7.00;;;3.53;;
71351;SDS011;59159;51.652;4.864;2023-09-07T03:33:52;7.60;;;4.18;;
71351;SDS011;59159;51.652;4.864;2023-09-07T03:36:18;7.75;;;3.35;;
71351;SDS011;59159;51.652;4.864;2023-09-07T03:38:44;7.57;;;3.73;;
71351;SDS011;59159;51.652;4.864;2023-09-07T03:41:10;7.50;;;3.55;;
71351;SDS011;59159;51.652;4.864;2023-09-07T03:43:36;8.57;;;3.90;;
71351;SDS011;59159;51.652;4.864;2023-09-07T03:46:02;7.30;;;3.70;;
71351;SDS011;59159;51.652;4.864;2023-09-07T03:48:28;7.45;;;3.67;;
71351;SDS011;59159;51.652;4.864;2023-09-07T03:50:55;8.38;;;4.00;;
71351;SDS011;59159;51.652;4.864;2023-09-07T03:53:21;8.63;;;3.72;;
71351;SDS011;59159;51.652;4.864;2023-09-07T03:55:47;7.50;;;3.60;;
71351;SDS011;59159;51.652;4.864;2023-09-07T03:58:13;7.07;;;3.60;;
71351;SDS011;59159;51.652;4.864;2023-09-07T04:00:39;9.52;;;4.00;;
71351;SDS011;59159;51.652;4.864;2023-09-07T04:03:06;8.30;;;3.77;;
71351;SDS011;59159;51.652;4.864;2023-09-07T04:05:32;7.65;;;4.10;;
71351;SDS011;59159;51.652;4.864;2023-09-07T04:07:58;7.07;;;3.85;;
71351;SDS011;59159;51.652;4.864;2023-09-07T04:10:25;7.60;;;4.33;;
71351;SDS011;59159;51.652;4.864;2023-09-07T04:12:51;7.38;;;3.65;;
71351;SDS011;59159;51.652;4.864;2023-09-07T04:15:19;9.00;;;4.00;;
71351;SDS011;59159;51.652;4.864;2023-09-07T04:17:45;7.47;;;3.92;;
71351;SDS011;59159;51.652;4.864;2023-09-07T04:20:11;7.70;;;4.00;;
71351;SDS011;59159;51.652;4.864;2023-09-07T04:22:38;9.32;;;3.95;;
71351;SDS011;59159;51.652;4.864;2023-09-07T04:25:05;7.20;;;3.40;;
71351;SDS011;59159;51.652;4.864;2023-09-07T04:27:31;7.20;;;3.47;;
71351;SDS011;59159;51.652;4.864;2023-09-07T04:29:57;6.90;;;3.95;;
71351;SDS011;59159;51.652;4.864;2023-09-07T04:32:23;7.95;;;4.05;;
71351;SDS011;59159;51.652;4.864;2023-09-07T04:34:53;8.70;;;4.70;;
71351;SDS011;59159;51.652;4.864;2023-09-07T04:37:19;8.57;;;3.45;;
71351;SDS011;59159;51.652;4.864;2023-09-07T04:39:45;8.55;;;3.95;;
71351;SDS011;59159;51.652;4.864;2023-09-07T04:42:13;7.22;;;3.83;;
71351;SDS011;59159;51.652;4.864;2023-09-07T04:44:38;8.47;;;4.03;;
71351;SDS011;59159;51.652;4.864;2023-09-07T04:47:04;8.13;;;3.72;;
71351;SDS011;59159;51.652;4.864;2023-09-07T04:49:30;7.22;;;3.63;;
71351;SDS011;59159;51.652;4.864;2023-09-07T04:51:57;7.83;;;3.97;;
71351;SDS011;59159;51.652;4.864;2023-09-07T04:54:23;8.23;;;3.85;;
71351;SDS011;59159;51.652;4.864;2023-09-07T04:56:48;7.50;;;3.47;;
71351;SDS011;59159;51.652;4.864;2023-09-07T04:59:15;9.33;;;3.93;;
71351;SDS011;59159;51.652;4.864;2023-09-07T05:01:41;13.25;;;4.85;;
71351;SDS011;59159;51.652;4.864;2023-09-07T05:04:07;8.05;;;4.10;;
71351;SDS011;59159;51.652;4.864;2023-09-07T05:06:33;7.80;;;4.15;;
71351;SDS011;59159;51.652;4.864;2023-09-07T05:09:02;8.40;;;4.17;;
71351;SDS011;59159;51.652;4.864;2023-09-07T05:11:28;7.45;;;3.72;;
71351;SDS011;59159;51.652;4.864;2023-09-07T05:13:54;6.97;;;3.42;;
71351;SDS011;59159;51.652;4.864;2023-09-07T05:16:20;6.90;;;3.60;;
71351;SDS011;59159;51.652;4.864;2023-09-07T05:18:46;8.32;;;3.90;;
71351;SDS011;59159;51.652;4.864;2023-09-07T05:21:15;12.68;;;7.22;;
71351;SDS011;59159;51.652;4.864;2023-09-07T05:23:42;12.73;;;8.50;;
71351;SDS011;59159;51.652;4.864;2023-09-07T05:26:08;14.05;;;8.25;;
71351;SDS011;59159;51.652;4.864;2023-09-07T05:28:34;15.55;;;8.55;;
71351;SDS011;59159;51.652;4.864;2023-09-07T05:31:00;13.68;;;7.65;;
71351;SDS011;59159;51.652;4.864;2023-09-07T05:33:26;13.30;;;7.67;;
71351;SDS011;59159;51.652;4.864;2023-09-07T05:35:52;14.05;;;7.82;;
71351;SDS011;59159;51.652;4.864;2023-09-07T05:38:18;15.00;;;8.75;;
71351;SDS011;59159;51.652;4.864;2023-09-07T05:40:44;13.90;;;8.37;;
71351;SDS011;59159;51.652;4.864;2023-09-07T05:43:11;14.00;;;8.90;;
71351;SDS011;59159;51.652;4.864;2023-09-07T05:45:38;13.77;;;8.57;;
71351;SDS011;59159;51.652;4.864;2023-09-07T05:48:05;13.20;;;8.80;;
71351;SDS011;59159;51.652;4.864;2023-09-07T05:50:34;14.15;;;8.77;;
71351;SDS011;59159;51.652;4.864;2023-09-07T05:53:00;14.65;;;8.00;;
71351;SDS011;59159;51.652;4.864;2023-09-07T05:55:26;15.40;;;8.00;;
71351;SDS011;59159;51.652;4.864;2023-09-07T05:57:55;15.00;;;9.03;;
71351;SDS011;59159;51.652;4.864;2023-09-07T06:00:21;12.93;;;7.78;;
71351;SDS011;59159;51.652;4.864;2023-09-07T06:02:48;13.40;;;8.10;;
71351;SDS011;59159;51.652;4.864;2023-09-07T06:05:14;12.87;;;7.77;;
71351;SDS011;59159;51.652;4.864;2023-09-07T06:07:41;13.63;;;8.30;;
71351;SDS011;59159;51.652;4.864;2023-09-07T06:10:07;13.75;;;7.95;;
71351;SDS011;59159;51.652;4.864;2023-09-07T06:12:33;14.10;;;8.47;;
71351;SDS011;59159;51.652;4.864;2023-09-07T06:14:59;13.40;;;8.32;;
71351;SDS011;59159;51.652;4.864;2023-09-07T06:17:26;16.10;;;7.75;;
71351;SDS011;59159;51.652;4.864;2023-09-07T06:19:52;14.68;;;7.90;;
71351;SDS011;59159;51.652;4.864;2023-09-07T06:22:18;16.43;;;8.03;;
71351;SDS011;59159;51.652;4.864;2023-09-07T06:24:44;18.17;;;9.35;;
71351;SDS011;59159;51.652;4.864;2023-09-07T06:27:10;15.02;;;8.60;;
71351;SDS011;59159;51.652;4.864;2023-09-07T06:29:36;14.67;;;8.87;;
71351;SDS011;59159;51.652;4.864;2023-09-07T06:32:02;16.10;;;8.93;;
71351;SDS011;59159;51.652;4.864;2023-09-07T06:34:28;19.95;;;9.70;;
71351;SDS011;59159;51.652;4.864;2023-09-07T06:36:54;17.17;;;9.20;;
71351;SDS011;59159;51.652;4.864;2023-09-07T06:39:20;15.13;;;8.55;;
71351;SDS011;59159;51.652;4.864;2023-09-07T06:41:46;15.68;;;8.93;;
71351;SDS011;59159;51.652;4.864;2023-09-07T06:44:13;16.40;;;8.38;;
71351;SDS011;59159;51.652;4.864;2023-09-07T06:46:39;13.83;;;8.00;;
71351;SDS011;59159;51.652;4.864;2023-09-07T06:49:05;15.93;;;8.93;;
71351;SDS011;59159;51.652;4.864;2023-09-07T06:51:31;18.98;;;9.27;;
71351;SDS011;59159;51.652;4.864;2023-09-07T06:53:57;12.83;;;8.33;;
71351;SDS011;59159;51.652;4.864;2023-09-07T06:56:23;14.90;;;8.43;;
71351;SDS011;59159;51.652;4.864;2023-09-07T06:58:51;15.07;;;9.30;;
71351;SDS011;59159;51.652;4.864;2023-09-07T07:01:17;15.10;;;8.93;;
71351;SDS011;59159;51.652;4.864;2023-09-07T07:03:43;16.42;;;9.02;;
71351;SDS011;59159;51.652;4.864;2023-09-07T07:06:09;13.85;;;7.47;;
71351;SDS011;59159;51.652;4.864;2023-09-07T07:08:35;14.23;;;8.70;;
71351;SDS011;59159;51.652;4.864;2023-09-07T07:11:01;18.80;;;8.57;;
71351;SDS011;59159;51.652;4.864;2023-09-07T07:13:27;14.05;;;8.30;;
71351;SDS011;59159;51.652;4.864;2023-09-07T07:15:54;13.00;;;8.45;;
71351;SDS011;59159;51.652;4.864;2023-09-07T07:18:20;17.47;;;7.67;;
71351;SDS011;59159;51.652;4.864;2023-09-07T07:20:46;13.70;;;8.25;;
71351;SDS011;59159;51.652;4.864;2023-09-07T07:23:12;12.60;;;7.97;;
71351;SDS011;59159;51.652;4.864;2023-09-07T07:25:38;13.77;;;8.13;;
71351;SDS011;59159;51.652;4.864;2023-09-07T07:28:04;16.48;;;7.78;;
71351;SDS011;59159;51.652;4.864;2023-09-07T07:30:37;14.25;;;8.20;;
71351;SDS011;59159;51.652;4.864;2023-09-07T07:33:05;13.13;;;7.45;;
71351;SDS011;59159;51.652;4.864;2023-09-07T07:35:32;12.37;;;7.60;;
71351;SDS011;59159;51.652;4.864;2023-09-07T07:37:58;13.68;;;7.38;;
71351;SDS011;59159;51.652;4.864;2023-09-07T07:40:24;11.23;;;7.32;;
71351;SDS011;59159;51.652;4.864;2023-09-07T07:42:51;15.70;;;7.63;;
71351;SDS011;59159;51.652;4.864;2023-09-07T07:45:19;13.27;;;7.35;;
71351;SDS011;59159;51.652;4.864;2023-09-07T07:47:45;14.63;;;7.85;;
71351;SDS011;59159;51.652;4.864;2023-09-07T07:50:11;11.77;;;7.73;;
71351;SDS011;59159;51.652;4.864;2023-09-07T07:52:37;12.68;;;7.10;;
71351;SDS011;59159;51.652;4.864;2023-09-07T07:55:03;16.58;;;7.97;;
71351;SDS011;59159;51.652;4.864;2023-09-07T07:57:31;14.65;;;7.93;;
71351;SDS011;59159;51.652;4.864;2023-09-07T07:59:57;16.03;;;6.87;;
71351;SDS011;59159;51.652;4.864;2023-09-07T08:02:23;13.95;;;6.72;;
71351;SDS011;59159;51.652;4.864;2023-09-07T08:04:49;13.93;;;7.20;;
71351;SDS011;59159;51.652;4.864;2023-09-07T08:07:15;13.23;;;7.03;;
71351;SDS011;59159;51.652;4.864;2023-09-07T08:09:42;11.25;;;6.57;;
71351;SDS011;59159;51.652;4.864;2023-09-07T08:12:08;11.10;;;6.32;;
71351;SDS011;59159;51.652;4.864;2023-09-07T08:14:34;11.63;;;6.20;;
71351;SDS011;59159;51.652;4.864;2023-09-07T08:17:00;24.13;;;6.65;;
71351;SDS011;59159;51.652;4.864;2023-09-07T08:19:26;11.07;;;6.07;;
71351;SDS011;59159;51.652;4.864;2023-09-07T08:21:56;12.15;;;5.32;;
71351;SDS011;59159;51.652;4.864;2023-09-07T08:24:23;11.40;;;5.40;;
71351;SDS011;59159;51.652;4.864;2023-09-07T08:26:49;9.75;;;5.47;;
71351;SDS011;59159;51.652;4.864;2023-09-07T08:29:16;8.45;;;4.35;;
71351;SDS011;59159;51.652;4.864;2023-09-07T08:31:42;10.17;;;4.40;;
71351;SDS011;59159;51.652;4.864;2023-09-07T08:34:10;9.77;;;4.38;;
71351;SDS011;59159;51.652;4.864;2023-09-07T08:36:36;9.10;;;4.45;;
71351;SDS011;59159;51.652;4.864;2023-09-07T08:39:06;10.37;;;4.57;;
71351;SDS011;59159;51.652;4.864;2023-09-07T08:41:38;9.68;;;4.70;;
71351;SDS011;59159;51.652;4.864;2023-09-07T08:44:09;9.52;;;4.72;;
71351;SDS011;59159;51.652;4.864;2023-09-07T08:46:36;9.85;;;5.40;;
71351;SDS011;59159;51.652;4.864;2023-09-07T08:49:02;9.93;;;4.97;;
71351;SDS011;59159;51.652;4.864;2023-09-07T08:51:30;8.52;;;4.53;;
71351;SDS011;59159;51.652;4.864;2023-09-07T08:54:01;10.02;;;4.70;;
71351;SDS011;59159;51.652;4.864;2023-09-07T08:56:28;8.50;;;4.83;;
71351;SDS011;59159;51.652;4.864;2023-09-07T08:58:54;11.38;;;4.75;;
71351;SDS011;59159;51.652;4.864;2023-09-07T09:01:20;10.93;;;5.53;;
71351;SDS011;59159;51.652;4.864;2023-09-07T09:03:46;8.40;;;4.73;;
71351;SDS011;59159;51.652;4.864;2023-09-07T09:06:13;8.55;;;4.85;;
71351;SDS011;59159;51.652;4.864;2023-09-07T09:08:46;10.05;;;5.45;;
71351;SDS011;59159;51.652;4.864;2023-09-07T09:11:16;9.93;;;5.50;;
71351;SDS011;59159;51.652;4.864;2023-09-07T09:13:42;11.33;;;5.00;;
71351;SDS011;59159;51.652;4.864;2023-09-07T09:16:09;10.63;;;5.80;;
71351;SDS011;59159;51.652;4.864;2023-09-07T09:18:35;9.88;;;5.95;;
71351;SDS011;59159;51.652;4.864;2023-09-07T09:21:01;10.27;;;5.23;;
71351;SDS011;59159;51.652;4.864;2023-09-07T09:23:34;11.18;;;6.28;;
71351;SDS011;59159;51.652;4.864;2023-09-07T09:26:03;9.27;;;5.22;;
71351;SDS011;59159;51.652;4.864;2023-09-07T09:28:33;11.53;;;5.80;;
71351;SDS011;59159;51.652;4.864;2023-09-07T09:30:59;9.38;;;5.22;;
71351;SDS011;59159;51.652;4.864;2023-09-07T09:33:26;8.93;;;5.78;;
71351;SDS011;59159;51.652;4.864;2023-09-07T09:35:55;13.18;;;6.50;;
71351;SDS011;59159;51.652;4.864;2023-09-07T09:38:22;11.07;;;6.03;;
71351;SDS011;59159;51.652;4.864;2023-09-07T09:40:48;8.82;;;4.97;;
71351;SDS011;59159;51.652;4.864;2023-09-07T09:43:14;10.45;;;5.25;;
71351;SDS011;59159;51.652;4.864;2023-09-07T09:45:41;10.00;;;5.90;;
71351;SDS011;59159;51.652;4.864;2023-09-07T09:48:07;10.40;;;5.30;;
71351;SDS011;59159;51.652;4.864;2023-09-07T09:50:34;9.98;;;5.30;;
71351;SDS011;59159;51.652;4.864;2023-09-07T09:53:05;10.00;;;5.57;;
71351;SDS011;59159;51.652;4.864;2023-09-07T09:55:34;10.45;;;6.40;;
71351;SDS011;59159;51.652;4.864;2023-09-07T09:58:00;11.38;;;5.63;;
71351;SDS011;59159;51.652;4.864;2023-09-07T10:00:27;9.40;;;5.50;;
71351;SDS011;59159;51.652;4.864;2023-09-07T10:02:55;9.13;;;5.27;;
71351;SDS011;59159;51.652;4.864;2023-09-07T10:05:24;10.85;;;5.65;;
71351;SDS011;59159;51.652;4.864;2023-09-07T10:07:50;11.55;;;5.55;;
71351;SDS011;59159;51.652;4.864;2023-09-07T10:10:18;10.03;;;5.50;;
71351;SDS011;59159;51.652;4.864;2023-09-07T10:12:44;9.88;;;5.07;;
71351;SDS011;59159;51.652;4.864;2023-09-07T10:15:20;11.35;;;5.28;;
71351;SDS011;59159;51.652;4.864;2023-09-07T10:17:46;9.20;;;5.27;;
71351;SDS011;59159;51.652;4.864;2023-09-07T10:20:15;9.07;;;5.40;;
71351;SDS011;59159;51.652;4.864;2023-09-07T10:22:41;11.70;;;5.80;;
71351;SDS011;59159;51.652;4.864;2023-09-07T10:25:17;10.32;;;5.15;;
71351;SDS011;59159;51.652;4.864;2023-09-07T10:27:43;10.83;;;5.70;;
71351;SDS011;59159;51.652;4.864;2023-09-07T10:30:09;8.45;;;4.70;;
71351;SDS011;59159;51.652;4.864;2023-09-07T10:32:38;9.07;;;5.03;;
71351;SDS011;59159;51.652;4.864;2023-09-07T10:35:15;9.73;;;5.00;;
71351;SDS011;59159;51.652;4.864;2023-09-07T10:37:43;10.98;;;5.00;;
71351;SDS011;59159;51.652;4.864;2023-09-07T10:40:10;9.80;;;4.65;;
71351;SDS011;59159;51.652;4.864;2023-09-07T10:42:37;9.37;;;4.70;;
71351;SDS011;59159;51.652;4.864;2023-09-07T10:45:13;8.75;;;4.60;;
71351;SDS011;59159;51.652;4.864;2023-09-07T10:47:44;9.98;;;4.88;;
71351;SDS011;59159;51.652;4.864;2023-09-07T10:50:13;9.30;;;4.50;;
71351;SDS011;59159;51.652;4.864;2023-09-07T10:52:42;9.20;;;4.60;;
71351;SDS011;59159;51.652;4.864;2023-09-07T10:55:08;7.97;;;4.20;;
71351;SDS011;59159;51.652;4.864;2023-09-07T10:57:45;8.68;;;4.55;;
71351;SDS011;59159;51.652;4.864;2023-09-07T11:00:12;8.37;;;4.13;;
71351;SDS011;59159;51.652;4.864;2023-09-07T11:02:38;9.35;;;4.28;;
71351;SDS011;59159;51.652;4.864;2023-09-07T11:05:05;8.38;;;4.15;;
71351;SDS011;59159;51.652;4.864;2023-09-07T11:07:31;9.30;;;4.43;;
71351;SDS011;59159;51.652;4.864;2023-09-07T11:09:58;7.85;;;4.15;;
71351;SDS011;59159;51.652;4.864;2023-09-07T11:12:24;7.65;;;3.97;;
71351;SDS011;59159;51.652;4.864;2023-09-07T11:14:50;7.22;;;3.80;;
71351;SDS011;59159;51.652;4.864;2023-09-07T11:17:17;7.43;;;4.00;;
71351;SDS011;59159;51.652;4.864;2023-09-07T11:19:43;7.78;;;3.70;;
71351;SDS011;59159;51.652;4.864;2023-09-07T11:22:09;8.00;;;3.80;;
71351;SDS011;59159;51.652;4.864;2023-09-07T11:24:35;8.03;;;3.77;;
71351;SDS011;59159;51.652;4.864;2023-09-07T11:27:01;7.85;;;4.25;;
71351;SDS011;59159;51.652;4.864;2023-09-07T11:29:30;7.78;;;3.33;;
71351;SDS011;59159;51.652;4.864;2023-09-07T11:32:09;8.87;;;4.47;;
71351;SDS011;59159;51.652;4.864;2023-09-07T11:34:46;8.75;;;3.50;;
71351;SDS011;59159;51.652;4.864;2023-09-07T11:37:13;7.80;;;3.75;;
71351;SDS011;59159;51.652;4.864;2023-09-07T11:39:39;7.25;;;3.67;;
71351;SDS011;59159;51.652;4.864;2023-09-07T11:42:05;6.60;;;3.37;;
71351;SDS011;59159;51.652;4.864;2023-09-07T11:44:31;7.38;;;3.45;;
71351;SDS011;59159;51.652;4.864;2023-09-07T11:46:57;8.43;;;3.50;;
71351;SDS011;59159;51.652;4.864;2023-09-07T11:49:23;7.03;;;3.43;;
71351;SDS011;59159;51.652;4.864;2023-09-07T11:51:49;7.68;;;3.67;;
71351;SDS011;59159;51.652;4.864;2023-09-07T11:54:15;6.88;;;3.53;;
71351;SDS011;59159;51.652;4.864;2023-09-07T11:56:42;6.63;;;3.50;;
71351;SDS011;59159;51.652;4.864;2023-09-07T11:59:10;7.00;;;3.47;;
71351;SDS011;59159;51.652;4.864;2023-09-07T12:01:36;7.32;;;3.15;;
71351;SDS011;59159;51.652;4.864;2023-09-07T12:04:04;7.70;;;3.22;;
71351;SDS011;59159;51.652;4.864;2023-09-07T12:06:30;7.00;;;3.20;;
71351;SDS011;59159;51.652;4.864;2023-09-07T12:09:03;7.05;;;3.45;;
71351;SDS011;59159;51.652;4.864;2023-09-07T12:11:30;6.05;;;3.00;;
71351;SDS011;59159;51.652;4.864;2023-09-07T12:13:56;7.50;;;2.80;;
71351;SDS011;59159;51.652;4.864;2023-09-07T12:16:22;9.23;;;3.42;;
71351;SDS011;59159;51.652;4.864;2023-09-07T12:18:48;7.85;;;3.67;;
71351;SDS011;59159;51.652;4.864;2023-09-07T12:21:14;8.93;;;3.63;;
71351;SDS011;59159;51.652;4.864;2023-09-07T12:23:40;8.20;;;3.60;;
71351;SDS011;59159;51.652;4.864;2023-09-07T12:26:06;6.18;;;3.25;;
71351;SDS011;59159;51.652;4.864;2023-09-07T12:28:33;6.88;;;3.58;;
71351;SDS011;59159;51.652;4.864;2023-09-07T12:31:00;8.13;;;3.80;;
71351;SDS011;59159;51.652;4.864;2023-09-07T12:33:25;6.50;;;3.25;;
71351;SDS011;59159;51.652;4.864;2023-09-07T12:35:54;7.55;;;3.67;;
71351;SDS011;59159;51.652;4.864;2023-09-07T12:38:20;7.70;;;3.37;;
71351;SDS011;59159;51.652;4.864;2023-09-07T12:40:49;7.88;;;4.10;;
71351;SDS011;59159;51.652;4.864;2023-09-07T12:43:15;8.45;;;3.42;;
71351;SDS011;59159;51.652;4.864;2023-09-07T12:45:41;7.30;;;3.40;;
71351;SDS011;59159;51.652;4.864;2023-09-07T12:48:07;8.02;;;3.10;;
71351;SDS011;59159;51.652;4.864;2023-09-07T12:50:33;7.13;;;3.30;;
71351;SDS011;59159;51.652;4.864;2023-09-07T12:52:59;7.18;;;3.20;;
71351;SDS011;59159;51.652;4.864;2023-09-07T12:55:25;8.03;;;3.37;;
71351;SDS011;59159;51.652;4.864;2023-09-07T12:57:52;9.82;;;3.55;;
71351;SDS011;59159;51.652;4.864;2023-09-07T13:00:18;7.55;;;3.85;;
71351;SDS011;59159;51.652;4.864;2023-09-07T13:02:44;8.47;;;3.30;;
71351;SDS011;59159;51.652;4.864;2023-09-07T13:05:10;7.55;;;3.75;;
71351;SDS011;59159;51.652;4.864;2023-09-07T13:07:36;7.57;;;3.38;;
71351;SDS011;59159;51.652;4.864;2023-09-07T13:10:02;6.80;;;3.40;;
71351;SDS011;59159;51.652;4.864;2023-09-07T13:12:29;7.03;;;3.15;;
71351;SDS011;59159;51.652;4.864;2023-09-07T13:14:55;7.00;;;3.55;;
71351;SDS011;59159;51.652;4.864;2023-09-07T13:17:21;7.97;;;3.90;;
71351;SDS011;59159;51.652;4.864;2023-09-07T13:19:47;7.73;;;3.50;;
71351;SDS011;59159;51.652;4.864;2023-09-07T13:22:13;6.53;;;3.35;;
71351;SDS011;59159;51.652;4.864;2023-09-07T13:24:39;9.43;;;4.05;;
71351;SDS011;59159;51.652;4.864;2023-09-07T13:27:05;7.10;;;3.47;;
71351;SDS011;59159;51.652;4.864;2023-09-07T13:29:32;8.27;;;3.70;;
71351;SDS011;59159;51.652;4.864;2023-09-07T13:31:58;8.82;;;3.40;;
71351;SDS011;59159;51.652;4.864;2023-09-07T13:34:24;7.07;;;3.47;;
71351;SDS011;59159;51.652;4.864;2023-09-07T13:36:50;7.60;;;3.42;;
71351;SDS011;59159;51.652;4.864;2023-09-07T13:39:16;7.28;;;3.75;;
71351;SDS011;59159;51.652;4.864;2023-09-07T13:41:42;7.82;;;3.38;;
71351;SDS011;59159;51.652;4.864;2023-09-07T13:44:08;7.73;;;3.10;;
71351;SDS011;59159;51.652;4.864;2023-09-07T13:46:34;6.47;;;3.28;;
71351;SDS011;59159;51.652;4.864;2023-09-07T13:49:00;6.28;;;3.15;;
71351;SDS011;59159;51.652;4.864;2023-09-07T13:51:26;8.37;;;3.87;;
71351;SDS011;59159;51.652;4.864;2023-09-07T13:53:52;7.90;;;3.25;;
71351;SDS011;59159;51.652;4.864;2023-09-07T13:56:18;7.32;;;3.80;;
71351;SDS011;59159;51.652;4.864;2023-09-07T13:58:44;7.10;;;3.27;;
71351;SDS011;59159;51.652;4.864;2023-09-07T14:01:11;7.57;;;3.33;;
71351;SDS011;59159;51.652;4.864;2023-09-07T14:03:37;7.28;;;3.70;;
71351;SDS011;59159;51.652;4.864;2023-09-07T14:06:03;7.85;;;3.50;;
71351;SDS011;59159;51.652;4.864;2023-09-07T14:08:29;8.40;;;3.60;;
71351;SDS011;59159;51.652;4.864;2023-09-07T14:10:58;7.43;;;3.60;;
71351;SDS011;59159;51.652;4.864;2023-09-07T14:13:24;7.68;;;3.92;;
71351;SDS011;59159;51.652;4.864;2023-09-07T14:15:50;6.40;;;3.10;;
71351;SDS011;59159;51.652;4.864;2023-09-07T14:18:16;7.30;;;3.70;;
71351;SDS011;59159;51.652;4.864;2023-09-07T14:20:42;7.15;;;3.80;;
71351;SDS011;59159;51.652;4.864;2023-09-07T14:23:08;8.83;;;3.50;;
71351;SDS011;59159;51.652;4.864;2023-09-07T14:25:34;6.97;;;3.85;;
71351;SDS011;59159;51.652;4.864;2023-09-07T14:28:00;7.25;;;3.60;;
71351;SDS011;59159;51.652;4.864;2023-09-07T14:30:26;6.95;;;3.35;;
71351;SDS011;59159;51.652;4.864;2023-09-07T14:32:52;7.90;;;3.60;;
71351;SDS011;59159;51.652;4.864;2023-09-07T14:35:18;7.45;;;3.90;;
71351;SDS011;59159;51.652;4.864;2023-09-07T14:37:44;8.63;;;3.90;;
71351;SDS011;59159;51.652;4.864;2023-09-07T14:40:10;9.00;;;4.13;;